createdAt,value
2022-07-28T00:00:13.039Z,5.03
2022-07-28T00:02:40.435Z,4.88
2022-07-28T00:05:08.220Z,4.50
2022-07-28T00:07:35.878Z,4.55
2022-07-28T00:10:03.991Z,4.85
2022-07-28T00:12:33.174Z,4.90
2022-07-28T00:15:00.903Z,5.10
2022-07-28T00:17:28.293Z,5.00
2022-07-28T00:19:55.738Z,4.85
2022-07-28T00:22:23.229Z,5.35
2022-07-28T00:24:50.633Z,5.07
2022-07-28T00:27:19.381Z,4.78
2022-07-28T00:29:50.962Z,5.70
2022-07-28T00:32:20.483Z,4.68
2022-07-28T00:34:48.438Z,5.05
2022-07-28T00:37:15.806Z,5.32
2022-07-28T00:39:44.054Z,5.15
2022-07-28T00:42:12.424Z,4.78
2022-07-28T00:44:41.994Z,4.63
2022-07-28T00:47:09.687Z,5.35
2022-07-28T00:49:37.588Z,5.38
2022-07-28T00:52:07.470Z,5.18
2022-07-28T00:54:37.134Z,5.00
2022-07-28T00:57:04.873Z,5.72
2022-07-28T00:59:33.675Z,5.32
2022-07-28T01:02:02.456Z,5.40
2022-07-28T01:04:30.217Z,5.38
2022-07-28T01:07:19.009Z,5.22
2022-07-28T01:10:01.319Z,5.57
2022-07-28T01:12:40.359Z,5.75
2022-07-28T01:15:23.266Z,5.30
2022-07-28T01:18:10.419Z,5.38
2022-07-28T01:21:02.581Z,5.13
2022-07-28T01:23:42.372Z,5.30
2022-07-28T01:26:18.990Z,5.55
2022-07-28T01:29:12.887Z,5.30
2022-07-28T01:31:43.757Z,5.35
2022-07-28T01:34:17.417Z,5.38
2022-07-28T01:36:57.018Z,5.88
2022-07-28T01:39:29.528Z,5.30
2022-07-28T01:41:59.149Z,5.88
2022-07-28T01:44:28.155Z,4.97
2022-07-28T01:46:57.798Z,5.47
2022-07-28T01:49:27.884Z,5.90
2022-07-28T01:51:57.566Z,6.05
2022-07-28T01:54:28.467Z,5.63
2022-07-28T01:56:57.755Z,5.85
2022-07-28T02:01:54.551Z,4.80
2022-07-28T02:04:24.526Z,5.30
2022-07-28T02:06:54.301Z,5.10
2022-07-28T02:09:23.061Z,5.22
2022-07-28T02:11:53.858Z,5.50
2022-07-28T02:14:24.541Z,5.18
2022-07-28T02:16:56.790Z,5.90
2022-07-28T02:19:26.280Z,5.47
2022-07-28T02:21:54.786Z,6.13
2022-07-28T02:24:26.656Z,6.65
2022-07-28T02:27:19.494Z,6.88
2022-07-28T02:29:55.144Z,5.38
2022-07-28T02:32:37.091Z,5.70
2022-07-28T02:35:10.029Z,5.95
2022-07-28T02:37:41.161Z,6.68
2022-07-28T02:40:13.719Z,6.07
2022-07-28T02:42:41.874Z,6.43
2022-07-28T02:45:13.078Z,5.40
2022-07-28T02:47:46.752Z,5.10
2022-07-28T02:50:16.653Z,5.40
2022-07-28T02:52:46.622Z,5.32
2022-07-28T02:55:16.211Z,5.20
2022-07-28T02:57:45.874Z,5.22
2022-07-28T03:00:14.371Z,4.75
2022-07-28T03:02:46.761Z,5.03
2022-07-28T03:05:17.650Z,5.07
2022-07-28T03:07:50.537Z,5.28
2022-07-28T03:10:33.845Z,4.97
2022-07-28T03:13:08.930Z,5.07
2022-07-28T03:15:37.748Z,4.75
2022-07-28T03:18:05.918Z,4.38
2022-07-28T03:20:34.406Z,4.72
2022-07-28T03:23:02.382Z,4.80
2022-07-28T03:25:41.026Z,4.25
2022-07-28T03:28:14.751Z,4.57
2022-07-28T03:30:51.269Z,4.68
2022-07-28T03:33:19.000Z,4.97
2022-07-28T03:35:49.735Z,5.20
2022-07-28T03:38:29.475Z,4.78
2022-07-28T03:40:57.207Z,4.60
2022-07-28T03:43:27.470Z,5.05
2022-07-28T03:45:54.961Z,4.50
2022-07-28T03:48:35.064Z,4.80
2022-07-28T03:51:03.298Z,4.65
2022-07-28T03:53:31.137Z,4.25
2022-07-28T03:55:58.757Z,4.50
2022-07-28T03:58:28.660Z,4.47
2022-07-28T04:00:59.055Z,4.78
2022-07-28T04:03:43.018Z,4.78
2022-07-28T04:06:15.736Z,4.10
2022-07-28T04:08:45.357Z,4.28
2022-07-28T04:11:14.478Z,4.10
2022-07-28T04:13:43.938Z,4.60
2022-07-28T04:18:39.442Z,4.47
2022-07-28T04:21:07.357Z,4.38
2022-07-28T04:23:34.893Z,4.53
2022-07-28T04:26:03.787Z,4.47
2022-07-28T04:28:32.220Z,4.25
2022-07-28T04:31:00.663Z,4.25
2022-07-28T04:33:28.162Z,4.38
2022-07-28T04:35:57.065Z,4.78
2022-07-28T04:38:25.665Z,4.20
2022-07-28T04:40:56.493Z,4.38
2022-07-28T04:43:25.240Z,4.63
2022-07-28T04:45:54.710Z,4.57
2022-07-28T04:48:24.178Z,4.45
2022-07-28T04:50:53.398Z,4.80
2022-07-28T04:53:22.658Z,4.80
2022-07-28T04:55:53.381Z,5.07
2022-07-28T04:58:23.308Z,4.85
2022-07-28T05:00:52.384Z,4.95
2022-07-28T05:03:20.901Z,4.65
2022-07-28T05:05:54.117Z,4.90
2022-07-28T05:08:26.208Z,4.10
2022-07-28T05:10:55.904Z,4.80
2022-07-28T05:13:24.275Z,4.78
2022-07-28T05:15:52.574Z,5.03
2022-07-28T05:18:21.021Z,4.63
2022-07-28T05:20:48.387Z,4.53
2022-07-28T05:23:17.878Z,4.78
2022-07-28T05:25:57.274Z,4.80
2022-07-28T05:28:25.914Z,10.02
2022-07-28T05:30:54.710Z,4.93
2022-07-28T05:33:23.910Z,4.57
2022-07-28T05:35:58.345Z,4.03
2022-07-28T05:38:28.961Z,4.63
2022-07-28T05:40:59.395Z,4.53
2022-07-28T05:43:28.224Z,4.10
2022-07-28T05:45:55.698Z,4.40
2022-07-28T05:48:23.273Z,4.00
2022-07-28T05:50:51.195Z,4.10
2022-07-28T05:53:19.491Z,4.50
2022-07-28T05:56:00.760Z,4.18
2022-07-28T05:58:30.899Z,4.20
2022-07-28T06:01:00.343Z,3.85
2022-07-28T06:03:32.582Z,4.75
2022-07-28T06:06:14.980Z,4.15
2022-07-28T06:08:45.624Z,4.30
2022-07-28T06:11:22.046Z,4.10
2022-07-28T06:13:52.137Z,3.92
2022-07-28T06:16:21.127Z,4.32
2022-07-28T06:18:50.003Z,4.30
2022-07-28T06:21:17.527Z,4.18
2022-07-28T06:23:45.432Z,4.50
2022-07-28T06:26:12.890Z,4.35
2022-07-28T06:28:40.472Z,4.32
2022-07-28T06:31:07.871Z,4.50
2022-07-28T06:33:35.563Z,4.65
2022-07-28T06:36:03.135Z,3.92
2022-07-28T06:38:31.381Z,4.40
2022-07-28T06:41:00.159Z,4.65
2022-07-28T06:43:27.547Z,4.50
2022-07-28T06:45:55.194Z,5.00
2022-07-28T06:48:24.680Z,4.32
2022-07-28T06:50:56.542Z,4.60
2022-07-28T06:53:24.912Z,4.47
2022-07-28T06:55:55.698Z,5.28
2022-07-28T06:58:24.891Z,4.50
2022-07-28T07:00:52.312Z,4.72
2022-07-28T07:03:20.438Z,5.00
2022-07-28T07:05:51.586Z,4.60
2022-07-28T07:08:20.941Z,4.75
2022-07-28T07:10:48.317Z,4.80
2022-07-28T07:13:16.239Z,4.70
2022-07-28T07:15:43.954Z,4.53
2022-07-28T07:18:12.655Z,5.20
2022-07-28T07:20:40.145Z,5.10
2022-07-28T07:23:07.989Z,4.85
2022-07-28T07:25:35.878Z,4.80
2022-07-28T07:28:03.554Z,4.85
2022-07-28T07:30:31.562Z,5.10
2022-07-28T07:32:59.245Z,5.40
2022-07-28T07:35:26.888Z,5.35
2022-07-28T07:37:56.208Z,5.10
2022-07-28T07:40:24.119Z,5.15
2022-07-28T07:42:52.090Z,4.80
2022-07-28T07:45:19.803Z,4.93
2022-07-28T07:47:47.382Z,5.60
2022-07-28T07:50:14.871Z,5.45
2022-07-28T07:52:42.604Z,4.80
2022-07-28T07:55:10.083Z,4.80
2022-07-28T07:57:37.614Z,5.15
2022-07-28T08:00:05.831Z,5.13
2022-07-28T08:02:33.385Z,4.90
2022-07-28T08:05:01.886Z,4.75
2022-07-28T08:07:29.324Z,4.95
2022-07-28T08:09:57.131Z,4.88
2022-07-28T08:12:25.606Z,4.40
2022-07-28T08:14:54.003Z,4.90
2022-07-28T08:17:25.643Z,4.55
2022-07-28T08:19:55.483Z,4.85
2022-07-28T08:22:24.249Z,4.80
2022-07-28T08:24:52.480Z,4.50
2022-07-28T08:27:21.034Z,4.72
2022-07-28T08:29:49.074Z,4.40
2022-07-28T08:32:16.904Z,4.63
2022-07-28T08:34:44.408Z,4.43
2022-07-28T08:37:15.511Z,5.07
2022-07-28T08:39:45.947Z,4.20
2022-07-28T08:42:20.517Z,4.60
2022-07-28T08:45:03.437Z,4.33
2022-07-28T08:47:45.987Z,4.63
2022-07-28T08:50:24.637Z,4.72
2022-07-28T08:52:55.255Z,4.30
2022-07-28T08:55:25.544Z,4.50
2022-07-28T08:58:01.396Z,4.60
2022-07-28T09:00:29.826Z,4.63
2022-07-28T09:02:58.116Z,4.43
2022-07-28T09:05:26.169Z,4.55
2022-07-28T09:07:55.798Z,5.03
2022-07-28T09:10:23.688Z,4.32
2022-07-28T09:12:52.054Z,4.32
2022-07-28T09:15:20.035Z,4.40
2022-07-28T09:17:47.808Z,5.10
2022-07-28T09:20:17.125Z,4.30
2022-07-28T09:22:59.795Z,4.55
2022-07-28T09:25:28.455Z,4.65
2022-07-28T09:27:59.516Z,4.30
2022-07-28T09:30:34.765Z,4.15
2022-07-28T09:33:41.828Z,4.43
2022-07-28T09:36:02.264Z,4.05
2022-07-28T09:38:40.738Z,5.03
2022-07-28T09:41:08.537Z,4.53
2022-07-28T09:43:43.645Z,4.13
2022-07-28T09:46:13.434Z,4.75
2022-07-28T09:48:50.266Z,4.60
2022-07-28T09:51:29.364Z,4.40
2022-07-28T09:54:08.641Z,5.07
2022-07-28T09:56:40.414Z,4.40
2022-07-28T09:59:09.198Z,4.45
2022-07-28T10:01:58.594Z,5.15
2022-07-28T10:04:40.951Z,4.82
2022-07-28T10:07:11.164Z,4.65
2022-07-28T10:09:39.568Z,4.30
2022-07-28T10:12:36.760Z,4.63
2022-07-28T10:15:34.827Z,4.80
2022-07-28T10:18:03.887Z,5.10
2022-07-28T10:20:33.031Z,4.90
2022-07-28T10:23:06.097Z,5.20
2022-07-28T10:25:34.810Z,4.40
2022-07-28T10:28:03.815Z,4.50
2022-07-28T10:30:39.440Z,5.38
2022-07-28T10:33:13.564Z,4.60
2022-07-28T10:35:54.267Z,4.80
2022-07-28T10:38:33.446Z,4.80
2022-07-28T10:41:03.717Z,5.03
2022-07-28T10:43:32.685Z,6.22
2022-07-28T10:46:06.244Z,4.45
2022-07-28T10:48:38.499Z,4.78
2022-07-28T10:51:06.567Z,4.70
2022-07-28T10:53:43.726Z,4.50
2022-07-28T10:56:41.437Z,5.20
2022-07-28T10:59:29.203Z,4.82
2022-07-28T11:01:56.707Z,4.85
2022-07-28T11:04:48.862Z,4.53
2022-07-28T11:07:17.731Z,4.32
2022-07-28T11:09:47.558Z,4.65
2022-07-28T11:12:16.002Z,5.78
2022-07-28T11:14:44.846Z,5.15
2022-07-28T11:17:14.408Z,4.90
2022-07-28T11:20:16.150Z,4.68
2022-07-28T11:22:34.264Z,4.90
2022-07-28T11:25:18.684Z,4.85
2022-07-28T11:27:54.721Z,4.40
2022-07-28T11:30:25.346Z,4.75
2022-07-28T11:32:55.526Z,4.95
2022-07-28T11:35:24.624Z,4.60
2022-07-28T11:38:11.731Z,5.25
2022-07-28T11:40:46.037Z,5.20
2022-07-28T11:43:22.972Z,4.70
2022-07-28T11:46:04.708Z,4.68
2022-07-28T11:48:36.317Z,5.22
2022-07-28T11:51:03.787Z,5.25
2022-07-28T11:53:43.417Z,4.70
2022-07-28T11:56:11.655Z,5.15
2022-07-28T11:58:40.751Z,4.68
2022-07-28T12:01:20.162Z,4.50
2022-07-28T12:03:55.285Z,4.45
2022-07-28T12:06:28.977Z,4.78
2022-07-28T12:09:00.037Z,5.43
2022-07-28T12:11:31.157Z,5.20
2022-07-28T12:14:08.578Z,5.05
2022-07-28T12:16:38.303Z,4.90
2022-07-28T12:19:08.950Z,5.10
2022-07-28T12:21:46.483Z,5.03
2022-07-28T12:24:26.074Z,5.55
2022-07-28T12:26:54.196Z,5.57
2022-07-28T12:29:21.802Z,5.38
2022-07-28T12:31:55.545Z,4.88
2022-07-28T12:34:28.637Z,5.25
2022-07-28T12:36:59.746Z,5.63
2022-07-28T12:39:28.238Z,5.60
2022-07-28T12:42:07.390Z,5.30
2022-07-28T12:44:48.727Z,5.68
2022-07-28T12:47:26.146Z,5.50
2022-07-28T12:50:17.776Z,5.90
2022-07-28T12:53:02.192Z,6.25
2022-07-28T12:55:32.958Z,5.68
2022-07-28T12:58:01.170Z,6.13
2022-07-28T13:00:34.105Z,6.65
2022-07-28T13:03:24.432Z,5.78
2022-07-28T13:06:03.544Z,6.40
2022-07-28T13:08:48.983Z,6.38
2022-07-28T13:14:04.751Z,6.07
2022-07-28T13:16:34.246Z,5.78
2022-07-28T13:19:04.566Z,6.30
2022-07-28T13:21:58.852Z,6.90
2022-07-28T13:24:29.812Z,5.93
2022-07-28T13:26:59.230Z,6.78
2022-07-28T13:29:26.715Z,6.40
2022-07-28T13:31:54.874Z,6.65
2022-07-28T13:34:23.478Z,6.10
2022-07-28T13:36:52.320Z,6.50
2022-07-28T13:39:19.822Z,7.43
2022-07-28T13:41:57.114Z,6.47
2022-07-28T13:44:30.495Z,5.95
2022-07-28T13:46:59.989Z,6.38
2022-07-28T13:49:32.546Z,6.45
2022-07-28T13:52:01.559Z,6.07
2022-07-28T13:54:29.024Z,6.65
2022-07-28T13:56:56.534Z,6.50
2022-07-28T13:59:26.295Z,6.20
2022-07-28T14:01:55.999Z,6.82
2022-07-28T14:04:24.088Z,6.45
2022-07-28T14:06:51.875Z,6.43
2022-07-28T14:09:21.086Z,6.55
2022-07-28T14:11:53.521Z,7.13
2022-07-28T14:14:25.229Z,6.72
2022-07-28T14:16:54.449Z,6.57
2022-07-28T14:19:38.242Z,6.80
2022-07-28T14:22:12.761Z,6.55
2022-07-28T14:24:42.064Z,6.72
2022-07-28T14:27:10.392Z,6.28
2022-07-28T14:29:38.852Z,6.05
2022-07-28T14:32:06.699Z,6.50
2022-07-28T14:34:34.739Z,6.00
2022-07-28T14:37:05.623Z,6.70
2022-07-28T14:39:38.289Z,6.70
2022-07-28T14:42:06.426Z,5.95
2022-07-28T14:44:34.435Z,6.03
2022-07-28T14:47:02.271Z,6.13
2022-07-28T14:49:29.739Z,6.05
2022-07-28T14:51:59.331Z,5.88
2022-07-28T14:54:27.843Z,5.72
2022-07-28T14:56:55.248Z,6.20
2022-07-28T14:59:22.749Z,5.55
2022-07-28T15:01:50.828Z,5.68
2022-07-28T15:04:18.625Z,5.50
2022-07-28T15:06:47.394Z,5.82
2022-07-28T15:09:14.974Z,6.05
2022-07-28T15:11:44.117Z,6.03
2022-07-28T15:14:11.650Z,5.80
2022-07-28T15:16:39.960Z,5.43
2022-07-28T15:19:08.112Z,5.85
2022-07-28T15:21:39.738Z,5.60
2022-07-28T15:24:08.654Z,5.50
2022-07-28T15:26:36.152Z,5.80
2022-07-28T15:29:04.558Z,5.43
2022-07-28T15:31:32.207Z,5.68
2022-07-28T15:33:59.863Z,5.25
2022-07-28T15:36:29.350Z,5.25
2022-07-28T15:38:56.670Z,5.43
2022-07-28T15:41:24.363Z,5.18
2022-07-28T15:43:51.822Z,5.68
2022-07-28T15:46:19.201Z,6.10
2022-07-28T15:48:47.158Z,5.10
2022-07-28T15:51:14.526Z,5.28
2022-07-28T15:53:41.944Z,5.32
2022-07-28T15:56:09.286Z,5.60
2022-07-28T15:58:36.672Z,5.43
2022-07-28T16:01:04.247Z,5.30
2022-07-28T16:03:31.667Z,5.32
2022-07-28T16:05:59.272Z,5.63
2022-07-28T16:08:26.813Z,5.07
2022-07-28T16:10:54.997Z,5.50
2022-07-28T16:13:31.380Z,5.80
2022-07-28T16:16:08.981Z,5.10
2022-07-28T16:18:37.682Z,5.50
2022-07-28T16:21:06.272Z,5.75
2022-07-28T16:23:34.551Z,5.85
2022-07-28T16:26:02.365Z,5.03
2022-07-28T16:28:29.730Z,5.00
2022-07-28T16:30:57.159Z,5.43
2022-07-28T16:33:24.660Z,5.68
2022-07-28T16:35:52.188Z,5.30
2022-07-28T16:38:19.862Z,5.07
2022-07-28T16:40:47.162Z,5.00
2022-07-28T16:43:14.819Z,4.55
2022-07-28T16:45:42.325Z,5.28
2022-07-28T16:48:09.645Z,4.82
2022-07-28T16:50:37.132Z,4.82
2022-07-28T16:53:08.082Z,5.20
2022-07-28T16:55:35.509Z,5.35
2022-07-28T16:58:02.999Z,5.05
2022-07-28T17:00:30.350Z,5.40
2022-07-28T17:02:57.745Z,5.22
2022-07-28T17:05:25.268Z,5.20
2022-07-28T17:07:52.790Z,4.57
2022-07-28T17:10:21.359Z,5.00
2022-07-28T17:12:56.262Z,5.00
2022-07-28T17:15:23.752Z,4.85
2022-07-28T17:17:52.182Z,4.93
2022-07-28T17:20:20.175Z,5.00
2022-07-28T17:22:47.973Z,4.93
2022-07-28T17:25:45.694Z,4.93
2022-07-28T17:28:04.882Z,4.55
2022-07-28T17:30:33.107Z,5.00
2022-07-28T17:33:07.884Z,4.47
2022-07-28T17:38:08.287Z,5.07
2022-07-28T17:40:38.147Z,4.88
2022-07-28T17:43:06.069Z,4.60
2022-07-28T17:45:33.516Z,5.07
2022-07-28T17:48:00.963Z,4.53
2022-07-28T17:50:28.369Z,4.65
2022-07-28T17:52:55.979Z,4.40
2022-07-28T17:55:57.748Z,4.28
2022-07-28T17:58:29.456Z,4.50
2022-07-28T18:01:10.319Z,4.18
2022-07-28T18:03:57.083Z,4.32
2022-07-28T18:06:29.444Z,4.82
2022-07-28T18:09:06.804Z,4.57
2022-07-28T18:11:55.245Z,4.63
2022-07-28T18:14:25.318Z,4.65
2022-07-28T18:16:52.708Z,4.63
2022-07-28T18:19:20.108Z,4.70
2022-07-28T18:21:47.411Z,4.28
2022-07-28T18:24:38.339Z,4.43
2022-07-28T18:27:05.793Z,4.50
2022-07-28T18:29:38.250Z,4.47
2022-07-28T18:32:09.612Z,4.65
2022-07-28T18:34:39.134Z,4.50
2022-07-28T18:37:06.930Z,4.65
2022-07-28T18:39:34.433Z,4.50
2022-07-28T18:42:02.150Z,4.45
2022-07-28T18:44:29.438Z,4.70
2022-07-28T18:47:01.350Z,4.90
2022-07-28T18:49:28.779Z,4.95
2022-07-28T18:52:05.551Z,4.80
2022-07-28T18:54:32.990Z,5.05
2022-07-28T18:57:00.295Z,4.82
2022-07-28T18:59:27.758Z,4.85
2022-07-28T19:01:55.152Z,4.28
2022-07-28T19:04:22.806Z,4.50
2022-07-28T19:06:50.420Z,4.60
2022-07-28T19:09:17.998Z,4.90
2022-07-28T19:11:46.427Z,5.68
2022-07-28T19:14:15.674Z,5.30
2022-07-28T19:16:43.838Z,4.72
2022-07-28T19:19:11.268Z,4.88
2022-07-28T19:21:42.963Z,5.13
2022-07-28T19:24:12.982Z,5.45
2022-07-28T19:26:42.449Z,5.78
2022-07-28T19:29:09.867Z,5.80
2022-07-28T19:31:37.588Z,5.20
2022-07-28T19:34:05.099Z,4.63
2022-07-28T19:36:32.522Z,5.00
2022-07-28T19:39:00.043Z,4.70
2022-07-28T19:41:28.270Z,4.93
2022-07-28T19:43:56.089Z,4.88
2022-07-28T19:46:24.625Z,4.47
2022-07-28T19:48:54.478Z,5.13
2022-07-28T19:51:21.968Z,5.20
2022-07-28T19:53:49.362Z,5.05
2022-07-28T19:56:17.509Z,5.10
2022-07-28T19:58:45.334Z,5.07
2022-07-28T20:01:12.765Z,5.50
2022-07-28T20:04:00.813Z,4.95
2022-07-28T20:06:28.459Z,5.13
2022-07-28T20:08:57.023Z,5.40
2022-07-28T20:11:24.523Z,5.35
2022-07-28T20:13:51.978Z,7.28
2022-07-28T20:16:20.383Z,5.30
2022-07-28T20:18:47.887Z,5.00
2022-07-28T20:21:15.473Z,5.22
2022-07-28T20:23:42.870Z,5.57
2022-07-28T20:26:10.418Z,5.43
2022-07-28T20:28:40.629Z,5.05
2022-07-28T20:31:08.489Z,5.18
2022-07-28T20:33:37.019Z,5.32
2022-07-28T20:36:04.519Z,5.70
2022-07-28T20:38:31.813Z,5.10
2022-07-28T20:40:59.278Z,5.40
2022-07-28T20:43:36.336Z,5.57
2022-07-28T20:46:05.482Z,5.70
2022-07-28T20:48:33.670Z,5.63
2022-07-28T20:51:01.099Z,5.55
2022-07-28T20:53:28.509Z,5.80
2022-07-28T20:55:55.937Z,5.63
2022-07-28T20:58:23.863Z,6.47
2022-07-28T21:00:51.500Z,6.05
2022-07-28T21:03:19.673Z,6.75
2022-07-28T21:05:47.115Z,6.30
2022-07-28T21:08:16.119Z,5.65
2022-07-28T21:10:45.238Z,6.20
2022-07-28T21:13:12.603Z,6.00
2022-07-28T21:15:40.443Z,6.50
2022-07-28T21:18:07.879Z,5.70
2022-07-28T21:20:35.346Z,6.43
2022-07-28T21:23:03.359Z,5.90
2022-07-28T21:25:34.697Z,5.97
2022-07-28T21:28:20.922Z,7.20
2022-07-28T21:30:48.282Z,6.15
2022-07-28T21:33:22.718Z,6.13
2022-07-28T21:35:50.687Z,6.33
2022-07-28T21:38:18.034Z,5.80
2022-07-28T21:40:45.404Z,6.32
2022-07-28T21:43:12.757Z,6.05
2022-07-28T21:45:40.386Z,6.10
2022-07-28T21:48:07.683Z,6.63
2022-07-28T21:50:38.409Z,6.22
2022-07-28T21:53:05.724Z,6.50
2022-07-28T21:55:33.206Z,6.90
2022-07-28T21:58:00.725Z,6.70
2022-07-28T22:00:28.116Z,6.90
2022-07-28T22:02:55.647Z,6.22
2022-07-28T22:05:28.268Z,6.15
2022-07-28T22:07:55.873Z,6.15
2022-07-28T22:10:23.704Z,6.60
2022-07-28T22:12:51.711Z,6.10
2022-07-28T22:15:19.104Z,5.75
2022-07-28T22:17:47.399Z,3.70
2022-07-28T22:20:15.394Z,3.35
2022-07-28T22:22:44.340Z,2.63
2022-07-28T22:25:12.243Z,2.03
2022-07-28T22:27:39.710Z,2.67
2022-07-28T22:30:08.914Z,1.70
2022-07-28T22:32:36.401Z,1.75
2022-07-28T22:35:04.222Z,1.40
2022-07-28T22:37:31.645Z,1.35
2022-07-28T22:39:59.165Z,2.03
2022-07-28T22:42:26.637Z,1.60
2022-07-28T22:44:54.056Z,1.10
2022-07-28T22:47:21.507Z,1.00
2022-07-28T22:49:48.972Z,0.98
2022-07-28T22:52:16.375Z,1.60
2022-07-28T22:57:29.902Z,1.50
2022-07-28T22:59:58.119Z,1.17
2022-07-28T23:02:29.667Z,1.63
2022-07-28T23:04:57.948Z,1.52
2022-07-28T23:07:51.054Z,2.35
2022-07-28T23:10:15.656Z,1.80
2022-07-28T23:12:43.590Z,2.40
2022-07-28T23:15:12.815Z,2.30
2022-07-28T23:17:41.861Z,2.40
2022-07-28T23:20:10.444Z,2.72
2022-07-28T23:22:39.555Z,2.40
2022-07-28T23:25:08.497Z,3.22
2022-07-28T23:27:38.406Z,3.00
2022-07-28T23:30:07.388Z,2.92
2022-07-28T23:32:35.773Z,2.75
2022-07-28T23:35:06.044Z,2.67
2022-07-28T23:37:35.225Z,2.90
2022-07-28T23:40:07.048Z,3.10
2022-07-28T23:42:36.954Z,2.63
2022-07-28T23:45:05.817Z,3.28
2022-07-28T23:47:34.910Z,3.10
2022-07-28T23:50:05.815Z,3.17
2022-07-28T23:52:34.403Z,2.78
2022-07-28T23:55:02.559Z,2.65
2022-07-28T23:57:31.499Z,2.92
